Main page
METAR-TAF:

METAR-TAF

Airports :

Toulouse–Blagnac Airport

Toulouse, France

latitude: 43-38N, longitude: 001-22E, elevation: 152 m

Current weather observation

The report was made 34 minutes ago, at 01:00 UTC
Wind 10 kt from the West
Temperature 20°C
Humidity 88%
Pressure 1020 hPa
Visibility 10 km or more
Few clouds at a height of 1100 ft

METAR: LFBO 220100Z AUTO 28010KT 9999 FEW011 20/18 Q1020 NOSIG

Time: 03:34 (01:34 UTC)

Forecast

The report was made 2 hours and 34 minutes ago, at 23:00 UTC
Forecast valid from 22 at 00 UTC to 23 at 06 UTC
Wind 12 kt from the West/Northwest
Visibility 10 km or more
no clouds below 1500 m and no cumulonimbus
Temporary
from 22 at 04 UTC to 22 at 07 UTC
Broken clouds at a height of 500 ft

TAF: LFBO 212300Z 2200/2306 29012KT CAVOK TEMPO 2204/2207 BKN005

Weather observations and forecasts of more than 4000 airports (METAR and TAF reports).

The available stations are represented by yellow and red dots on the map.

Hover mouse over dot to see the name of the station.

Then click to see weather observations and forecasts.

To change the map : click on the green buttons with a black cross to zoom in, on the green button with a dash to zoom out, or on the green arrows for adjacent maps.


METAR-TAF: